Cerrillos, New Mexico
Current Conditions -  °F | °C
As of 10:53 PM on Wednesday 28 Jan 2015 (Local Time) from KSAF Reporting Station
Clear Clear  
Wind Chill: 33°   Ceiling: Unl
Heat Index: 40°   Visibility: 10mi
Dew Point: 27°   Wind: 12mph
Humidity: 60%   Direction: 360°N
Pressure: 30.26"   Gusts: NA
Location:  35.44°N, 106.13°W
Report Text: KSAF 290553Z AUTO 36010KT 10SM CLR 04/M03 A3026 RMK AO2 SLP202 T00441028 10117 20022 50009
Loading
Personal Weather Stations






























Interactive Weather Map New forecast layout! Learn more

10-Day Weather Forecast

Advertisements
Track Severe Weather on mobile